KPVD

Theodore Francis Green State Airport

Providence, Rhode Island, USA
METAR KPVD 150051Z 20007KT 10SM FEW028 23/21 A2986 RMK AO2 SLP112 T02330211
Observed Flight Rules
Aug-15 @ 00:51 UTC (15 minutes ago) Visual Flight Rules
Wind Visibility Clouds
200° at 7 knots 10 miles
  • Few at 2,800' AGL
Temperatures Readings
Current 23°C / 73°F
Dewpoint 21°C / 70°F
Humidity 89%
Altimeter 29.86" Hg
Pressure 1011.2 hPa
Elevation 16
METAR KPVD 150051Z 20007KT 10SM FEW028 23/21 A2986 RMK AO2 SLP112 T02330211
Observed Flight Rules
Aug-15 @ 00:51 UTC
(15 minutes ago)
VFR
Wind Visibility
200° at 7 knots 10 miles
Clouds
  • Few at 2,800' AGL
Temperature Dewpoint
23°C / 73°F 21°C / 70°F
Humidity Altimeter Pressure
89% 29.86" Hg 1011.2 hPa